createdAt,value
2022-08-08T00:00:51.305Z,880
2022-08-08T00:02:31.804Z,882
2022-08-08T00:04:17.412Z,883
2022-08-08T00:06:28.168Z,894
2022-08-08T00:08:18.094Z,895
2022-08-08T00:10:18.013Z,893
2022-08-08T00:12:23.681Z,880
2022-08-08T00:14:47.594Z,892
2022-08-08T00:16:18.043Z,887
2022-08-08T00:18:18.333Z,888
2022-08-08T00:20:18.188Z,897
2022-08-08T00:22:18.349Z,894
2022-08-08T00:24:18.192Z,905
2022-08-08T00:26:21.773Z,905
2022-08-08T00:28:34.829Z,913
2022-08-08T00:30:17.821Z,922
2022-08-08T00:32:21.515Z,914
2022-08-08T00:34:19.730Z,928
2022-08-08T00:36:17.871Z,918
2022-08-08T00:38:31.690Z,940
2022-08-08T00:41:08.331Z,932
2022-08-08T00:42:19.822Z,944
2022-08-08T00:44:17.938Z,951
2022-08-08T00:46:17.834Z,962
2022-08-08T00:48:29.610Z,961
2022-08-08T00:50:17.469Z,974
2022-08-08T00:52:19.746Z,974
2022-08-08T00:54:18.006Z,980
2022-08-08T00:56:17.852Z,970
2022-08-08T00:58:17.625Z,964
2022-08-08T01:00:18.093Z,971
2022-08-08T01:03:15.439Z,963
2022-08-08T01:04:16.909Z,961
2022-08-08T01:06:17.790Z,952
2022-08-08T01:08:17.818Z,951
2022-08-08T01:10:17.874Z,955
2022-08-08T01:12:18.113Z,943
2022-08-08T01:14:18.312Z,962
2022-08-08T01:16:18.137Z,953
2022-08-08T01:18:25.224Z,952
2022-08-08T01:20:17.452Z,938
2022-08-08T01:22:23.093Z,939
2022-08-08T01:24:18.181Z,946
2022-08-08T01:26:17.525Z,941
2022-08-08T01:28:17.977Z,944
2022-08-08T01:30:18.016Z,934
2022-08-08T01:32:17.833Z,930
2022-08-08T01:34:20.108Z,938
2022-08-08T01:36:18.152Z,921
2022-08-08T01:38:17.849Z,931
2022-08-08T01:40:17.529Z,948
2022-08-08T01:42:17.813Z,960
2022-08-08T01:44:17.846Z,950
2022-08-08T01:46:17.801Z,933
2022-08-08T01:48:28.038Z,946
2022-08-08T01:50:19.989Z,931
2022-08-08T01:52:30.726Z,927
2022-08-08T01:55:18.265Z,918
2022-08-08T01:56:27.942Z,914
2022-08-08T01:58:19.007Z,917
2022-08-08T02:00:17.979Z,910
2022-08-08T02:02:32.297Z,907
2022-08-08T02:04:17.588Z,903
2022-08-08T02:06:31.989Z,900
2022-08-08T02:08:18.134Z,897
2022-08-08T02:10:29.290Z,887
2022-08-08T02:12:18.324Z,890
2022-08-08T02:14:17.445Z,885
2022-08-08T02:16:20.599Z,879
2022-08-08T02:18:18.032Z,877
2022-08-08T02:21:00.558Z,883
2022-08-08T02:22:17.336Z,881
2022-08-08T02:24:18.206Z,929
2022-08-08T02:26:17.634Z,938
2022-08-08T02:28:17.393Z,924
2022-08-08T02:30:21.421Z,911
2022-08-08T02:32:22.596Z,891
2022-08-08T02:34:27.440Z,901
2022-08-08T02:36:17.671Z,879
2022-08-08T02:38:25.189Z,875
2022-08-08T02:40:18.029Z,932
2022-08-08T02:42:18.369Z,944
2022-08-08T02:44:36.753Z,927
2022-08-08T02:46:17.802Z,911
2022-08-08T02:48:17.665Z,909
2022-08-08T02:50:18.197Z,894
2022-08-08T02:52:33.046Z,897
2022-08-08T02:54:17.702Z,880
2022-08-08T02:56:17.680Z,888
2022-08-08T02:58:17.600Z,899
2022-08-08T03:00:27.373Z,899
2022-08-08T03:02:19.953Z,898
2022-08-08T03:05:02.229Z,898
2022-08-08T03:06:24.348Z,880
2022-08-08T03:08:17.690Z,880
2022-08-08T03:10:31.911Z,886
2022-08-08T03:12:18.100Z,873
2022-08-08T03:15:55.485Z,873
2022-08-08T03:16:19.801Z,878
2022-08-08T03:18:31.536Z,871
2022-08-08T03:20:17.816Z,865
2022-08-08T03:22:37.975Z,860
2022-08-08T03:24:17.808Z,864
2022-08-08T03:26:17.819Z,862
2022-08-08T03:28:18.895Z,852
2022-08-08T03:30:19.124Z,837
2022-08-08T03:32:17.974Z,840
2022-08-08T03:34:18.154Z,836
2022-08-08T03:36:20.176Z,835
2022-08-08T03:38:55.167Z,828
2022-08-08T03:40:28.897Z,832
2022-08-08T03:42:37.308Z,830
2022-08-08T03:44:18.103Z,827
2022-08-08T03:46:18.167Z,853
2022-08-08T03:48:21.033Z,834
2022-08-08T03:50:19.881Z,823
2022-08-08T03:52:17.604Z,825
2022-08-08T03:54:40.887Z,822
2022-08-08T03:56:31.422Z,811
2022-08-08T03:58:33.992Z,855
2022-08-08T04:00:18.856Z,803
2022-08-08T04:02:32.920Z,802
2022-08-08T04:04:18.235Z,794
2022-08-08T04:06:17.751Z,799
2022-08-08T04:08:32.630Z,797
2022-08-08T04:10:18.365Z,798
2022-08-08T04:12:18.075Z,791
2022-08-08T04:14:33.011Z,778
2022-08-08T04:16:18.544Z,782
2022-08-08T04:18:18.469Z,771
2022-08-08T04:20:18.005Z,772
2022-08-08T04:22:17.843Z,763
2022-08-08T04:24:19.406Z,762
2022-08-08T04:26:17.599Z,750
2022-08-08T04:28:35.665Z,749
2022-08-08T04:30:19.333Z,747
2022-08-08T04:32:30.454Z,742
2022-08-08T04:34:17.723Z,744
2022-08-08T04:36:18.348Z,746
2022-08-08T04:38:21.533Z,734
2022-08-08T04:40:18.174Z,732
2022-08-08T04:42:17.944Z,737
2022-08-08T04:44:18.128Z,727
2022-08-08T04:46:18.554Z,731
2022-08-08T04:48:17.425Z,731
2022-08-08T04:50:24.563Z,724
2022-08-08T04:52:17.994Z,715
2022-08-08T04:54:36.686Z,700
2022-08-08T04:56:17.974Z,670
2022-08-08T04:58:17.900Z,671
2022-08-08T05:00:19.522Z,661
2022-08-08T05:02:30.883Z,674
2022-08-08T05:04:17.671Z,662
2022-08-08T05:06:18.520Z,680
2022-08-08T05:08:18.128Z,685
2022-08-08T05:10:18.069Z,678
2022-08-08T05:12:20.341Z,683
2022-08-08T05:14:19.808Z,702
2022-08-08T05:16:49.475Z,698
2022-08-08T05:18:22.698Z,706
2022-08-08T05:20:17.480Z,715
2022-08-08T05:22:18.269Z,704
2022-08-08T05:24:18.111Z,710
2022-08-08T05:26:19.708Z,708
2022-08-08T05:28:48.475Z,717
2022-08-08T05:30:18.361Z,724
2022-08-08T05:32:18.339Z,723
2022-08-08T05:34:17.793Z,727
2022-08-08T05:36:23.173Z,720
2022-08-08T05:38:30.996Z,730
2022-08-08T05:40:18.099Z,711
2022-08-08T05:42:21.738Z,722
2022-08-08T05:44:17.728Z,719
2022-08-08T05:46:17.721Z,712
2022-08-08T05:48:18.321Z,722
2022-08-08T05:50:17.563Z,707
2022-08-08T05:52:17.500Z,710
2022-08-08T05:54:25.078Z,711
2022-08-08T05:56:18.052Z,709
2022-08-08T05:58:19.947Z,713
2022-08-08T06:00:19.573Z,713
2022-08-08T06:02:17.881Z,724
2022-08-08T06:04:22.610Z,720
2022-08-08T06:06:18.371Z,715
2022-08-08T06:08:28.400Z,725
2022-08-08T06:10:22.617Z,714
2022-08-08T06:12:18.543Z,713
2022-08-08T06:14:17.860Z,731
2022-08-08T06:16:18.909Z,717
2022-08-08T06:18:20.483Z,713
2022-08-08T06:20:17.674Z,718
2022-08-08T06:22:33.317Z,724
2022-08-08T06:24:22.912Z,729
2022-08-08T06:26:36.334Z,741
2022-08-08T06:28:17.395Z,729
2022-08-08T06:30:20.081Z,744
2022-08-08T06:32:18.398Z,739
2022-08-08T06:34:25.357Z,731
2022-08-08T06:36:18.061Z,739
2022-08-08T06:38:18.399Z,741
2022-08-08T06:40:17.436Z,744
2022-08-08T06:42:18.287Z,743
2022-08-08T06:44:18.599Z,738
2022-08-08T06:46:17.863Z,740
2022-08-08T06:48:18.386Z,750
2022-08-08T06:50:31.611Z,753
2022-08-08T06:52:18.176Z,753
2022-08-08T06:54:17.923Z,759
2022-08-08T06:56:17.827Z,756
2022-08-08T06:58:18.638Z,769
2022-08-08T07:00:17.642Z,770
2022-08-08T07:02:26.238Z,770
2022-08-08T07:04:36.202Z,772
2022-08-08T07:06:17.390Z,776
2022-08-08T07:08:18.272Z,779
2022-08-08T07:10:17.425Z,782
2022-08-08T07:12:17.901Z,787
2022-08-08T07:14:17.726Z,786
2022-08-08T07:16:18.091Z,791
2022-08-08T07:18:34.911Z,797
2022-08-08T07:20:17.883Z,803
2022-08-08T07:22:18.597Z,807
2022-08-08T07:24:17.998Z,814
2022-08-08T07:26:17.781Z,814
2022-08-08T07:28:18.017Z,815
2022-08-08T07:30:25.481Z,817
2022-08-08T07:32:17.420Z,822
2022-08-08T07:34:27.073Z,816
2022-08-08T07:36:17.646Z,831
2022-08-08T07:38:20.763Z,835
2022-08-08T07:40:29.331Z,834
2022-08-08T07:42:18.793Z,833
2022-08-08T07:44:37.142Z,816
2022-08-08T07:46:24.248Z,817
2022-08-08T07:48:17.990Z,814
2022-08-08T07:50:22.041Z,812
2022-08-08T07:52:19.741Z,817
2022-08-08T07:54:24.196Z,797
2022-08-08T07:56:35.254Z,826
2022-08-08T07:58:18.085Z,827
2022-08-08T08:00:17.541Z,843
2022-08-08T08:02:32.681Z,845
2022-08-08T08:04:17.728Z,826
2022-08-08T08:06:17.629Z,833
2022-08-08T08:08:18.744Z,790
2022-08-08T08:10:17.777Z,807
2022-08-08T08:12:26.644Z,816
2022-08-08T08:14:17.446Z,810
2022-08-08T08:16:17.433Z,809
2022-08-08T08:18:17.593Z,826
2022-08-08T08:20:18.556Z,780
2022-08-08T08:22:25.650Z,825
2022-08-08T08:24:18.573Z,769
2022-08-08T08:26:18.061Z,782
2022-08-08T08:28:21.660Z,773
2022-08-08T08:30:17.524Z,786
2022-08-08T08:32:24.095Z,794
2022-08-08T08:34:18.065Z,815
2022-08-08T08:36:21.768Z,814
2022-08-08T08:38:19.003Z,838
2022-08-08T08:40:17.534Z,823
2022-08-08T08:42:19.459Z,819
2022-08-08T08:44:18.217Z,815
2022-08-08T08:46:19.030Z,831
2022-08-08T08:48:19.198Z,844
2022-08-08T08:50:32.155Z,835
2022-08-08T08:52:20.509Z,834
2022-08-08T08:54:17.548Z,814
2022-08-08T08:56:18.270Z,795
2022-08-08T08:58:17.885Z,762
2022-08-08T09:00:19.013Z,746
2022-08-08T09:02:18.208Z,746
2022-08-08T09:04:30.490Z,745
2022-08-08T09:06:19.416Z,756
2022-08-08T09:08:18.517Z,748
2022-08-08T09:10:17.791Z,753
2022-08-08T09:12:17.678Z,773
2022-08-08T09:14:17.774Z,771
2022-08-08T09:16:18.339Z,751
2022-08-08T09:18:18.352Z,727
2022-08-08T09:21:54.516Z,751
2022-08-08T09:22:19.595Z,768
2022-08-08T09:24:17.716Z,764
2022-08-08T09:26:18.298Z,758
2022-08-08T09:28:24.004Z,762
2022-08-08T09:30:20.297Z,758
2022-08-08T09:32:19.398Z,774
2022-08-08T09:34:31.957Z,772
2022-08-08T09:36:19.162Z,770
2022-08-08T09:38:18.350Z,782
2022-08-08T09:40:18.706Z,775
2022-08-08T09:42:21.499Z,778
2022-08-08T09:44:18.743Z,775
2022-08-08T09:46:25.913Z,769
2022-08-08T09:48:22.129Z,769
2022-08-08T09:50:17.742Z,761
2022-08-08T09:52:54.266Z,790
2022-08-08T09:54:19.718Z,836
2022-08-08T09:56:21.891Z,833
2022-08-08T09:58:20.438Z,848
2022-08-08T10:00:49.568Z,835
2022-08-08T10:02:17.823Z,851
2022-08-08T10:04:22.423Z,857
2022-08-08T10:06:17.903Z,863
2022-08-08T10:08:17.444Z,838
2022-08-08T10:10:18.310Z,854
2022-08-08T10:12:23.402Z,856
2022-08-08T10:14:27.863Z,859
2022-08-08T10:16:18.393Z,871
2022-08-08T10:18:22.355Z,867
2022-08-08T10:20:18.231Z,848
2022-08-08T10:22:17.752Z,884
2022-08-08T10:24:28.954Z,848
2022-08-08T10:26:26.216Z,784
2022-08-08T10:28:17.855Z,822
2022-08-08T10:30:57.646Z,862
2022-08-08T10:32:18.236Z,855
2022-08-08T10:34:19.750Z,842
2022-08-08T10:36:20.285Z,845
2022-08-08T10:38:18.628Z,860
2022-08-08T10:40:19.755Z,819
2022-08-08T10:42:17.807Z,829
2022-08-08T10:44:17.605Z,847
2022-08-08T10:46:27.656Z,832
2022-08-08T10:48:17.942Z,866
2022-08-08T10:50:18.253Z,849
2022-08-08T10:52:18.190Z,864
2022-08-08T10:54:17.779Z,852
2022-08-08T10:56:27.222Z,838
2022-08-08T10:58:18.121Z,865
2022-08-08T11:00:17.544Z,831
2022-08-08T11:02:17.609Z,783
2022-08-08T11:04:17.354Z,802
2022-08-08T11:06:18.283Z,816
2022-08-08T11:08:32.049Z,803
2022-08-08T11:10:19.426Z,813
2022-08-08T11:12:17.592Z,827
2022-08-08T11:14:17.442Z,830
2022-08-08T11:16:24.202Z,839
2022-08-08T11:18:18.261Z,843
2022-08-08T11:20:18.473Z,836
2022-08-08T11:22:17.597Z,834
2022-08-08T11:24:18.364Z,813
2022-08-08T11:26:18.870Z,814
2022-08-08T11:28:18.724Z,815
2022-08-08T11:30:20.729Z,792
2022-08-08T11:32:17.762Z,810
2022-08-08T11:34:24.225Z,808
2022-08-08T11:36:17.731Z,825
2022-08-08T11:38:37.451Z,831
2022-08-08T11:40:22.428Z,818
2022-08-08T11:42:17.771Z,817
2022-08-08T11:44:17.560Z,820
2022-08-08T11:46:18.644Z,831
2022-08-08T11:48:20.491Z,823
2022-08-08T11:50:23.114Z,828
2022-08-08T11:52:18.189Z,819
2022-08-08T11:54:27.567Z,815
2022-08-08T11:56:18.129Z,814
2022-08-08T11:58:18.200Z,810
2022-08-08T12:00:17.612Z,822
2022-08-08T12:02:31.553Z,815
2022-08-08T12:04:18.214Z,822
2022-08-08T12:06:18.257Z,846
2022-08-08T12:08:17.994Z,858
2022-08-08T12:10:17.741Z,856
2022-08-08T12:12:17.694Z,846
2022-08-08T12:14:17.710Z,865
2022-08-08T12:16:18.090Z,847
2022-08-08T12:18:18.094Z,869
2022-08-08T12:20:18.193Z,874
2022-08-08T12:22:20.437Z,872
2022-08-08T12:24:18.230Z,869
2022-08-08T12:26:27.567Z,916
2022-08-08T12:28:17.420Z,884
2022-08-08T12:30:18.693Z,946
2022-08-08T12:32:20.427Z,969
2022-08-08T12:34:17.431Z,979
2022-08-08T12:36:18.229Z,969
2022-08-08T12:38:18.114Z,959
2022-08-08T12:40:22.274Z,921
2022-08-08T12:42:21.092Z,963
2022-08-08T12:44:30.141Z,957
2022-08-08T12:46:18.961Z,952
2022-08-08T12:48:36.796Z,956
2022-08-08T12:50:17.553Z,958
2022-08-08T12:52:28.467Z,964
2022-08-08T12:54:19.484Z,962
2022-08-08T12:56:23.755Z,985
2022-08-08T12:58:19.559Z,985
2022-08-08T13:00:20.210Z,972
2022-08-08T13:02:17.638Z,973
2022-08-08T13:04:18.230Z,969
2022-08-08T13:06:18.250Z,979
2022-08-08T13:08:17.654Z,978
2022-08-08T13:10:17.557Z,985
2022-08-08T13:12:22.185Z,970
2022-08-08T13:14:17.666Z,966
2022-08-08T13:16:17.988Z,955
2022-08-08T13:18:22.023Z,960
2022-08-08T13:20:18.298Z,965
2022-08-08T13:22:17.799Z,955
2022-08-08T13:24:24.654Z,946
2022-08-08T13:26:18.387Z,939
2022-08-08T13:28:17.593Z,954
2022-08-08T13:30:20.993Z,964
2022-08-08T13:32:18.127Z,931
2022-08-08T13:34:21.370Z,945
2022-08-08T13:36:18.066Z,949
2022-08-08T13:38:17.733Z,961
2022-08-08T13:40:26.839Z,971
2022-08-08T13:42:18.364Z,969
2022-08-08T13:44:19.339Z,948
2022-08-08T13:46:26.195Z,934
2022-08-08T13:48:19.575Z,947
2022-08-08T13:50:34.349Z,917
2022-08-08T13:52:33.265Z,937
2022-08-08T13:54:18.341Z,945
2022-08-08T13:56:18.260Z,949
2022-08-08T13:58:19.965Z,943
2022-08-08T14:00:17.791Z,942
2022-08-08T14:02:20.309Z,935
2022-08-08T14:04:17.845Z,905
2022-08-08T14:06:20.384Z,898
2022-08-08T14:08:30.141Z,939
2022-08-08T14:10:17.808Z,943
2022-08-08T14:12:18.090Z,957
2022-08-08T14:14:20.817Z,981
2022-08-08T14:16:18.380Z,957
2022-08-08T14:18:34.303Z,956
2022-08-08T14:20:55.310Z,959
2022-08-08T14:22:18.508Z,979
2022-08-08T14:24:17.586Z,968
2022-08-08T14:26:17.998Z,984
2022-08-08T14:28:18.034Z,969
2022-08-08T14:30:18.918Z,970
2022-08-08T14:32:26.473Z,1084
2022-08-08T14:34:19.302Z,1096
2022-08-08T14:36:18.064Z,1106
2022-08-08T14:38:33.008Z,1105
2022-08-08T14:40:17.477Z,1082
2022-08-08T14:42:17.715Z,1102
2022-08-08T14:44:19.497Z,1098
2022-08-08T14:46:17.927Z,1114
2022-08-08T14:48:27.650Z,1047
2022-08-08T14:50:22.699Z,1035
2022-08-08T14:52:21.153Z,997
2022-08-08T14:54:28.529Z,1075
2022-08-08T14:56:18.084Z,1066
2022-08-08T14:58:19.801Z,1056
2022-08-08T15:00:17.898Z,996
2022-08-08T15:02:17.589Z,1019
2022-08-08T15:04:18.882Z,1000
2022-08-08T15:06:17.877Z,995
2022-08-08T15:08:21.906Z,1004
2022-08-08T15:10:18.246Z,996
2022-08-08T15:12:22.261Z,1003
2022-08-08T15:14:17.492Z,1011
2022-08-08T15:16:17.657Z,1002
2022-08-08T15:18:19.699Z,1009
2022-08-08T15:20:18.620Z,1046
2022-08-08T15:22:17.864Z,1065
2022-08-08T15:24:17.962Z,1048
2022-08-08T15:26:17.340Z,1071
2022-08-08T15:28:33.125Z,1069
2022-08-08T15:30:18.113Z,1072
2022-08-08T15:32:20.034Z,1065
2022-08-08T15:34:18.886Z,1169
2022-08-08T15:36:18.828Z,1058
2022-08-08T15:38:17.664Z,1057
2022-08-08T15:40:17.993Z,1042
2022-08-08T15:42:18.277Z,1019
2022-08-08T15:44:32.564Z,1019
2022-08-08T15:46:17.445Z,1017
2022-08-08T15:48:18.169Z,1011
2022-08-08T15:50:20.758Z,1016
2022-08-08T15:52:17.747Z,1017
2022-08-08T15:54:18.716Z,1020
2022-08-08T15:56:19.728Z,1023
2022-08-08T15:58:17.887Z,1007
2022-08-08T16:00:27.694Z,1028
2022-08-08T16:02:18.066Z,1016
2022-08-08T16:04:17.913Z,1021
2022-08-08T16:06:27.910Z,1040
2022-08-08T16:08:20.231Z,1033
2022-08-08T16:13:06.847Z,1038
2022-08-08T16:13:07.071Z,1040
2022-08-08T16:14:33.057Z,1033
2022-08-08T16:16:18.524Z,1031
2022-08-08T16:18:18.113Z,1037
2022-08-08T16:20:17.991Z,1032
2022-08-08T16:22:28.861Z,1025
2022-08-08T16:24:17.465Z,1033
2022-08-08T16:26:19.310Z,1046
2022-08-08T16:28:23.044Z,1032
2022-08-08T16:30:28.818Z,1033
2022-08-08T16:32:19.963Z,1025
2022-08-08T16:34:17.767Z,1063
2022-08-08T16:36:19.544Z,1052
2022-08-08T16:38:26.438Z,1067
2022-08-08T16:40:19.727Z,1088
2022-08-08T16:42:18.848Z,1080
2022-08-08T16:44:18.178Z,1073
2022-08-08T16:46:38.408Z,1066
2022-08-08T16:48:17.896Z,1065
2022-08-08T16:50:20.074Z,1062
2022-08-08T16:54:58.968Z,1063
2022-08-08T16:54:59.213Z,1058
2022-08-08T16:56:18.192Z,1059
2022-08-08T16:58:18.234Z,1046
2022-08-08T17:00:26.786Z,1049
2022-08-08T17:02:32.714Z,1052
2022-08-08T17:04:17.619Z,1048
2022-08-08T17:06:17.614Z,1038
2022-08-08T17:08:17.782Z,1047
2022-08-08T17:10:19.213Z,1055
2022-08-08T17:12:18.385Z,1034
2022-08-08T17:14:19.779Z,1048
2022-08-08T17:16:17.629Z,1042
2022-08-08T17:18:17.843Z,1041
2022-08-08T17:20:18.259Z,1034
2022-08-08T17:22:18.335Z,1038
2022-08-08T17:24:22.090Z,1039
2022-08-08T17:26:17.717Z,1029
2022-08-08T17:28:17.888Z,1037
2022-08-08T17:30:23.484Z,1029
2022-08-08T17:32:18.140Z,1034
2022-08-08T17:34:38.474Z,1027
2022-08-08T17:36:21.969Z,1030
2022-08-08T17:38:18.055Z,1036
2022-08-08T17:40:17.698Z,1023
2022-08-08T17:42:17.869Z,1026
2022-08-08T17:44:17.888Z,1020
2022-08-08T17:46:17.687Z,1011
2022-08-08T17:48:29.118Z,1003
2022-08-08T17:50:17.807Z,995
2022-08-08T17:52:17.798Z,987
2022-08-08T17:54:22.128Z,992
2022-08-08T17:56:18.078Z,988
2022-08-08T17:58:17.907Z,985
2022-08-08T18:00:19.466Z,989
2022-08-08T18:02:19.026Z,973
2022-08-08T18:04:20.032Z,976
2022-08-08T18:06:29.255Z,986
2022-08-08T18:08:24.394Z,975
2022-08-08T18:10:17.540Z,974
2022-08-08T18:12:18.423Z,956
2022-08-08T18:14:19.018Z,959
2022-08-08T18:16:20.882Z,968
2022-08-08T18:18:28.520Z,959
2022-08-08T18:20:37.424Z,745
2022-08-08T18:22:32.913Z,1059
2022-08-08T18:24:19.215Z,988
2022-08-08T18:26:18.222Z,956
2022-08-08T18:28:19.270Z,948
2022-08-08T18:30:18.238Z,940
2022-08-08T18:32:18.166Z,920
2022-08-08T18:34:26.104Z,931
2022-08-08T18:36:18.894Z,934
2022-08-08T18:38:19.305Z,921
2022-08-08T18:40:17.879Z,915
2022-08-08T18:42:18.198Z,899
2022-08-08T18:44:18.049Z,889
2022-08-08T18:46:53.687Z,881
2022-08-08T18:48:18.124Z,863
2022-08-08T18:50:18.181Z,839
2022-08-08T18:52:18.701Z,831
2022-08-08T18:54:18.384Z,830
2022-08-08T18:56:17.405Z,831
2022-08-08T18:58:17.597Z,827
2022-08-08T19:00:20.030Z,825
2022-08-08T19:02:26.951Z,814
2022-08-08T19:04:17.500Z,806
2022-08-08T19:06:17.586Z,790
2022-08-08T19:08:24.278Z,789
2022-08-08T19:10:18.046Z,769
2022-08-08T19:12:17.758Z,785
2022-08-08T19:14:20.469Z,784
2022-08-08T19:16:18.856Z,776
2022-08-08T19:18:31.717Z,768
2022-08-08T19:20:17.527Z,768
2022-08-08T19:22:21.720Z,754
2022-08-08T19:24:38.169Z,746
2022-08-08T19:26:27.114Z,756
2022-08-08T19:28:20.055Z,747
2022-08-08T19:30:24.006Z,739
2022-08-08T19:32:19.234Z,758
2022-08-08T19:34:30.685Z,737
2022-08-08T19:36:17.584Z,739
2022-08-08T19:38:22.027Z,733
2022-08-08T19:40:17.365Z,716
2022-08-08T19:42:17.780Z,736
2022-08-08T19:44:27.150Z,734
2022-08-08T19:46:22.379Z,728
2022-08-08T19:48:28.433Z,724
2022-08-08T19:50:17.461Z,731
2022-08-08T19:52:34.226Z,728
2022-08-08T19:54:17.416Z,689
2022-08-08T19:56:25.450Z,762
2022-08-08T19:58:17.506Z,739
2022-08-08T20:00:29.453Z,755
2022-08-08T20:02:17.646Z,725
2022-08-08T20:04:17.923Z,714
2022-08-08T20:06:17.425Z,741
2022-08-08T20:08:27.426Z,728
2022-08-08T20:10:18.099Z,667
2022-08-08T20:12:17.881Z,720
2022-08-08T20:14:35.058Z,720
2022-08-08T20:16:18.030Z,708
2022-08-08T20:18:18.263Z,712
2022-08-08T20:20:19.431Z,711
2022-08-08T20:22:21.069Z,706
2022-08-08T20:24:18.350Z,706
2022-08-08T20:26:17.455Z,726
2022-08-08T20:28:21.216Z,720
2022-08-08T20:30:54.028Z,724
2022-08-08T20:32:17.653Z,719
2022-08-08T20:34:28.401Z,718
2022-08-08T20:36:17.843Z,713
2022-08-08T20:38:18.257Z,712
2022-08-08T20:40:18.092Z,707
2022-08-08T20:42:17.499Z,715
2022-08-08T20:44:17.519Z,709
2022-08-08T20:46:20.475Z,706
2022-08-08T20:48:21.516Z,709
2022-08-08T20:50:17.969Z,714
2022-08-08T20:52:17.869Z,716
2022-08-08T20:54:26.410Z,711
2022-08-08T20:56:17.624Z,705
2022-08-08T20:58:20.389Z,705
2022-08-08T21:00:18.006Z,695
2022-08-08T21:02:19.958Z,701
2022-08-08T21:04:17.678Z,689
2022-08-08T21:06:17.515Z,689
2022-08-08T21:08:34.118Z,702
2022-08-08T21:10:20.647Z,700
2022-08-08T21:12:17.919Z,639
2022-08-08T21:14:17.717Z,637
2022-08-08T21:16:20.471Z,728
2022-08-08T21:18:18.054Z,731
2022-08-08T21:20:17.645Z,724
2022-08-08T21:22:18.212Z,727
2022-08-08T21:24:27.017Z,717
2022-08-08T21:26:21.186Z,713
2022-08-08T21:28:19.567Z,720
2022-08-08T21:30:21.799Z,719
2022-08-08T21:32:19.245Z,718
2022-08-08T21:34:18.610Z,720
2022-08-08T21:36:20.370Z,718
2022-08-08T21:38:18.401Z,731
2022-08-08T21:40:21.158Z,554
2022-08-08T21:42:17.640Z,868
2022-08-08T21:44:18.285Z,751
2022-08-08T21:48:03.431Z,735
2022-08-08T21:48:21.446Z,724
2022-08-08T21:50:17.620Z,724
2022-08-08T21:54:19.455Z,735
2022-08-08T21:54:37.074Z,737
2022-08-08T21:56:18.997Z,726
2022-08-08T21:58:17.474Z,726
2022-08-08T22:00:25.814Z,717
2022-08-08T22:02:19.323Z,719
2022-08-08T22:04:18.148Z,718
2022-08-08T22:06:28.670Z,720
2022-08-08T22:08:23.974Z,721
2022-08-08T22:10:28.924Z,714
2022-08-08T22:12:17.525Z,715
2022-08-08T22:14:18.307Z,718
2022-08-08T22:16:18.202Z,725
2022-08-08T22:18:18.171Z,715
2022-08-08T22:20:19.051Z,722
2022-08-08T22:22:17.895Z,722
2022-08-08T22:24:17.729Z,712
2022-08-08T22:26:20.165Z,714
2022-08-08T22:29:04.108Z,704
2022-08-08T22:30:29.347Z,708
2022-08-08T22:32:17.901Z,716
2022-08-08T22:34:18.050Z,703
2022-08-08T22:36:17.541Z,704
2022-08-08T22:38:18.058Z,703
2022-08-08T22:40:17.706Z,716
2022-08-08T22:42:24.151Z,706
2022-08-08T22:44:18.204Z,703
2022-08-08T22:46:17.345Z,692
2022-08-08T22:48:18.113Z,703
2022-08-08T22:50:26.702Z,710
2022-08-08T22:52:18.145Z,725
2022-08-08T22:54:29.064Z,756
2022-08-08T22:56:18.160Z,758
2022-08-08T22:58:17.463Z,773
2022-08-08T23:00:18.170Z,779
2022-08-08T23:02:19.604Z,785
2022-08-08T23:04:18.164Z,780
2022-08-08T23:06:18.052Z,789
2022-08-08T23:08:19.898Z,786
2022-08-08T23:10:19.624Z,787
2022-08-08T23:12:29.212Z,789
2022-08-08T23:14:17.933Z,789
2022-08-08T23:16:37.502Z,788
2022-08-08T23:18:17.930Z,796
2022-08-08T23:20:17.927Z,811
2022-08-08T23:22:17.539Z,820
2022-08-08T23:24:22.629Z,803
2022-08-08T23:26:18.325Z,809
2022-08-08T23:28:18.143Z,816
2022-08-08T23:30:17.555Z,825
2022-08-08T23:32:18.033Z,835
2022-08-08T23:34:19.460Z,853
2022-08-08T23:36:17.898Z,842
2022-08-08T23:38:18.244Z,858
2022-08-08T23:40:18.486Z,858
2022-08-08T23:42:21.345Z,854
2022-08-08T23:44:18.466Z,862
2022-08-08T23:48:57.792Z,863
2022-08-08T23:48:58.328Z,859
2022-08-08T23:50:30.324Z,871
2022-08-08T23:52:17.956Z,860
2022-08-08T23:54:39.702Z,864
2022-08-08T23:56:24.020Z,868
2022-08-08T23:58:22.298Z,859
